sensor_id;sensor_type;location;lat;lon;timestamp;temperature;humidity
18884;DHT22;9574;47.282;9.640;2024-02-21T00:00:47;5.60;99.90
18884;DHT22;9574;47.282;9.640;2024-02-21T00:03:16;5.60;99.90
18884;DHT22;9574;47.282;9.640;2024-02-21T00:05:43;5.50;99.90
18884;DHT22;9574;47.282;9.640;2024-02-21T00:08:10;5.40;99.90
18884;DHT22;9574;47.282;9.640;2024-02-21T00:10:36;5.20;99.90
18884;DHT22;9574;47.282;9.640;2024-02-21T00:13:03;5.10;99.90
18884;DHT22;9574;47.282;9.640;2024-02-21T00:15:30;5.10;99.90
18884;DHT22;9574;47.282;9.640;2024-02-21T00:17:57;5.00;99.90
18884;DHT22;9574;47.282;9.640;2024-02-21T00:20:25;5.00;99.90
18884;DHT22;9574;47.282;9.640;2024-02-21T00:22:52;5.00;99.90
18884;DHT22;9574;47.282;9.640;2024-02-21T00:25:20;4.90;99.90
18884;DHT22;9574;47.282;9.640;2024-02-21T00:27:47;4.90;99.90
18884;DHT22;9574;47.282;9.640;2024-02-21T00:30:14;4.80;99.90
18884;DHT22;9574;47.282;9.640;2024-02-21T00:32:41;4.80;99.90
18884;DHT22;9574;47.282;9.640;2024-02-21T00:35:08;4.70;99.90
18884;DHT22;9574;47.282;9.640;2024-02-21T00:37:36;4.70;99.90
18884;DHT22;9574;47.282;9.640;2024-02-21T00:40:04;4.70;99.90
18884;DHT22;9574;47.282;9.640;2024-02-21T00:42:32;4.70;99.90
18884;DHT22;9574;47.282;9.640;2024-02-21T00:44:59;4.70;99.90
18884;DHT22;9574;47.282;9.640;2024-02-21T00:47:25;4.70;99.90
18884;DHT22;9574;47.282;9.640;2024-02-21T00:49:52;4.80;99.90
18884;DHT22;9574;47.282;9.640;2024-02-21T00:52:19;4.80;99.90
18884;DHT22;9574;47.282;9.640;2024-02-21T00:54:48;4.70;99.90
18884;DHT22;9574;47.282;9.640;2024-02-21T00:57:15;4.60;99.90
18884;DHT22;9574;47.282;9.640;2024-02-21T00:59:42;4.80;99.90
18884;DHT22;9574;47.282;9.640;2024-02-21T01:02:09;4.90;99.90
18884;DHT22;9574;47.282;9.640;2024-02-21T01:04:36;5.00;99.90
18884;DHT22;9574;47.282;9.640;2024-02-21T01:07:03;5.00;99.90
18884;DHT22;9574;47.282;9.640;2024-02-21T01:09:30;4.80;99.90
18884;DHT22;9574;47.282;9.640;2024-02-21T01:11:58;4.80;99.90
18884;DHT22;9574;47.282;9.640;2024-02-21T01:14:25;4.80;99.90
18884;DHT22;9574;47.282;9.640;2024-02-21T01:16:52;4.80;99.90
18884;DHT22;9574;47.282;9.640;2024-02-21T01:19:19;4.70;99.90
18884;DHT22;9574;47.282;9.640;2024-02-21T01:21:46;4.70;99.90
18884;DHT22;9574;47.282;9.640;2024-02-21T01:24:13;4.70;99.90
18884;DHT22;9574;47.282;9.640;2024-02-21T01:26:40;4.80;99.90
18884;DHT22;9574;47.282;9.640;2024-02-21T01:29:09;4.80;99.90
18884;DHT22;9574;47.282;9.640;2024-02-21T01:31:36;4.70;99.90
18884;DHT22;9574;47.282;9.640;2024-02-21T01:34:03;4.50;99.90
18884;DHT22;9574;47.282;9.640;2024-02-21T01:36:30;4.30;99.90
18884;DHT22;9574;47.282;9.640;2024-02-21T01:38:56;4.20;99.90
18884;DHT22;9574;47.282;9.640;2024-02-21T01:41:23;4.20;99.90
18884;DHT22;9574;47.282;9.640;2024-02-21T01:43:51;4.20;99.90
18884;DHT22;9574;47.282;9.640;2024-02-21T01:46:19;4.20;99.90
18884;DHT22;9574;47.282;9.640;2024-02-21T01:48:46;4.10;99.90
18884;DHT22;9574;47.282;9.640;2024-02-21T01:51:13;4.00;99.90
18884;DHT22;9574;47.282;9.640;2024-02-21T01:53:43;4.30;99.90
18884;DHT22;9574;47.282;9.640;2024-02-21T01:56:10;4.60;99.90
18884;DHT22;9574;47.282;9.640;2024-02-21T01:58:40;4.90;99.90
18884;DHT22;9574;47.282;9.640;2024-02-21T02:01:09;4.90;99.90
18884;DHT22;9574;47.282;9.640;2024-02-21T02:03:38;5.10;99.90
18884;DHT22;9574;47.282;9.640;2024-02-21T02:06:05;5.30;99.90
18884;DHT22;9574;47.282;9.640;2024-02-21T02:08:32;5.20;99.90
18884;DHT22;9574;47.282;9.640;2024-02-21T02:11:00;4.80;99.90
18884;DHT22;9574;47.282;9.640;2024-02-21T02:13:27;4.30;99.90
18884;DHT22;9574;47.282;9.640;2024-02-21T02:15:54;4.10;99.90
18884;DHT22;9574;47.282;9.640;2024-02-21T02:18:21;4.00;99.90
18884;DHT22;9574;47.282;9.640;2024-02-21T02:20:50;4.10;99.90
18884;DHT22;9574;47.282;9.640;2024-02-21T02:23:22;4.20;99.90
18884;DHT22;9574;47.282;9.640;2024-02-21T02:25:50;4.30;99.90
18884;DHT22;9574;47.282;9.640;2024-02-21T02:28:18;4.40;99.90
18884;DHT22;9574;47.282;9.640;2024-02-21T02:30:45;4.20;99.90
18884;DHT22;9574;47.282;9.640;2024-02-21T02:33:12;4.20;99.90
18884;DHT22;9574;47.282;9.640;2024-02-21T02:35:39;4.20;99.90
18884;DHT22;9574;47.282;9.640;2024-02-21T02:38:06;4.30;99.90
18884;DHT22;9574;47.282;9.640;2024-02-21T02:40:35;4.40;99.90
18884;DHT22;9574;47.282;9.640;2024-02-21T02:43:02;4.70;99.90
18884;DHT22;9574;47.282;9.640;2024-02-21T02:45:29;4.80;99.90
18884;DHT22;9574;47.282;9.640;2024-02-21T02:47:57;4.70;99.90
18884;DHT22;9574;47.282;9.640;2024-02-21T02:50:24;4.80;99.90
18884;DHT22;9574;47.282;9.640;2024-02-21T02:52:51;4.90;99.90
18884;DHT22;9574;47.282;9.640;2024-02-21T02:55:18;4.80;99.90
18884;DHT22;9574;47.282;9.640;2024-02-21T02:57:47;4.60;99.90
18884;DHT22;9574;47.282;9.640;2024-02-21T03:00:15;4.40;99.90
18884;DHT22;9574;47.282;9.640;2024-02-21T03:02:43;4.40;99.90
18884;DHT22;9574;47.282;9.640;2024-02-21T03:05:14;4.70;99.90
18884;DHT22;9574;47.282;9.640;2024-02-21T03:07:42;4.80;99.90
18884;DHT22;9574;47.282;9.640;2024-02-21T03:10:08;5.00;99.90
18884;DHT22;9574;47.282;9.640;2024-02-21T03:12:36;5.10;99.90
18884;DHT22;9574;47.282;9.640;2024-02-21T03:15:05;5.10;99.90
18884;DHT22;9574;47.282;9.640;2024-02-21T03:17:32;5.30;99.90
18884;DHT22;9574;47.282;9.640;2024-02-21T03:19:59;5.30;99.90
18884;DHT22;9574;47.282;9.640;2024-02-21T03:22:26;5.10;99.90
18884;DHT22;9574;47.282;9.640;2024-02-21T03:24:53;5.10;99.90
18884;DHT22;9574;47.282;9.640;2024-02-21T03:27:20;5.10;99.90
18884;DHT22;9574;47.282;9.640;2024-02-21T03:29:47;5.20;99.90
18884;DHT22;9574;47.282;9.640;2024-02-21T03:32:15;5.10;99.90
18884;DHT22;9574;47.282;9.640;2024-02-21T03:34:42;5.10;99.90
18884;DHT22;9574;47.282;9.640;2024-02-21T03:37:09;5.20;99.90
18884;DHT22;9574;47.282;9.640;2024-02-21T03:39:37;5.00;99.90
18884;DHT22;9574;47.282;9.640;2024-02-21T03:42:04;4.90;99.90
18884;DHT22;9574;47.282;9.640;2024-02-21T03:44:31;4.70;99.90
18884;DHT22;9574;47.282;9.640;2024-02-21T03:46:59;4.60;99.90
18884;DHT22;9574;47.282;9.640;2024-02-21T03:49:27;4.50;99.90
18884;DHT22;9574;47.282;9.640;2024-02-21T03:51:54;4.50;99.90
18884;DHT22;9574;47.282;9.640;2024-02-21T03:54:21;4.50;99.90
18884;DHT22;9574;47.282;9.640;2024-02-21T03:56:48;4.50;99.90
18884;DHT22;9574;47.282;9.640;2024-02-21T03:59:15;4.60;99.90
18884;DHT22;9574;47.282;9.640;2024-02-21T04:01:42;4.70;99.90
18884;DHT22;9574;47.282;9.640;2024-02-21T04:04:09;5.00;99.90
18884;DHT22;9574;47.282;9.640;2024-02-21T04:06:46;5.00;99.90
18884;DHT22;9574;47.282;9.640;2024-02-21T04:09:13;4.80;99.90
18884;DHT22;9574;47.282;9.640;2024-02-21T04:11:40;4.90;99.90
18884;DHT22;9574;47.282;9.640;2024-02-21T04:14:07;4.80;99.90
18884;DHT22;9574;47.282;9.640;2024-02-21T04:16:34;4.80;99.90
18884;DHT22;9574;47.282;9.640;2024-02-21T04:19:01;5.00;99.90
18884;DHT22;9574;47.282;9.640;2024-02-21T04:21:28;5.20;99.90
18884;DHT22;9574;47.282;9.640;2024-02-21T04:23:56;5.10;99.90
18884;DHT22;9574;47.282;9.640;2024-02-21T04:26:24;4.70;99.90
18884;DHT22;9574;47.282;9.640;2024-02-21T04:28:51;4.30;99.90
18884;DHT22;9574;47.282;9.640;2024-02-21T04:31:18;4.10;99.90
18884;DHT22;9574;47.282;9.640;2024-02-21T04:33:45;3.90;99.90
18884;DHT22;9574;47.282;9.640;2024-02-21T04:36:12;3.80;99.90
18884;DHT22;9574;47.282;9.640;2024-02-21T04:38:39;3.80;99.90
18884;DHT22;9574;47.282;9.640;2024-02-21T04:41:08;3.70;99.90
18884;DHT22;9574;47.282;9.640;2024-02-21T04:43:35;3.70;99.90
18884;DHT22;9574;47.282;9.640;2024-02-21T04:46:02;3.80;99.90
18884;DHT22;9574;47.282;9.640;2024-02-21T04:48:29;3.90;99.90
18884;DHT22;9574;47.282;9.640;2024-02-21T04:50:55;4.00;99.90
18884;DHT22;9574;47.282;9.640;2024-02-21T04:53:22;4.00;99.90
18884;DHT22;9574;47.282;9.640;2024-02-21T04:55:49;4.00;99.90
18884;DHT22;9574;47.282;9.640;2024-02-21T04:58:18;3.90;99.90
18884;DHT22;9574;47.282;9.640;2024-02-21T05:00:44;3.80;99.90
18884;DHT22;9574;47.282;9.640;2024-02-21T05:03:11;3.80;99.90
18884;DHT22;9574;47.282;9.640;2024-02-21T05:05:38;3.90;99.90
18884;DHT22;9574;47.282;9.640;2024-02-21T05:08:06;4.00;99.90
18884;DHT22;9574;47.282;9.640;2024-02-21T05:10:32;4.10;99.90
18884;DHT22;9574;47.282;9.640;2024-02-21T05:12:59;4.10;99.90
18884;DHT22;9574;47.282;9.640;2024-02-21T05:15:28;4.00;99.90
18884;DHT22;9574;47.282;9.640;2024-02-21T05:17:55;4.10;99.90
18884;DHT22;9574;47.282;9.640;2024-02-21T05:20:21;4.40;99.90
18884;DHT22;9574;47.282;9.640;2024-02-21T05:22:48;4.70;99.90
18884;DHT22;9574;47.282;9.640;2024-02-21T05:25:15;5.00;99.90
18884;DHT22;9574;47.282;9.640;2024-02-21T05:27:42;5.00;99.90
18884;DHT22;9574;47.282;9.640;2024-02-21T05:30:10;4.60;99.90
18884;DHT22;9574;47.282;9.640;2024-02-21T05:32:38;4.30;99.90
18884;DHT22;9574;47.282;9.640;2024-02-21T05:35:05;4.10;99.90
18884;DHT22;9574;47.282;9.640;2024-02-21T05:37:32;4.00;99.90
18884;DHT22;9574;47.282;9.640;2024-02-21T05:39:59;4.00;99.90
18884;DHT22;9574;47.282;9.640;2024-02-21T05:42:26;4.00;99.90
18884;DHT22;9574;47.282;9.640;2024-02-21T05:44:53;3.90;99.90
18884;DHT22;9574;47.282;9.640;2024-02-21T05:47:20;3.90;99.90
18884;DHT22;9574;47.282;9.640;2024-02-21T05:49:48;3.70;99.90
18884;DHT22;9574;47.282;9.640;2024-02-21T05:52:19;3.70;99.90
18884;DHT22;9574;47.282;9.640;2024-02-21T05:54:46;3.60;99.90
18884;DHT22;9574;47.282;9.640;2024-02-21T05:57:13;3.70;99.90
18884;DHT22;9574;47.282;9.640;2024-02-21T05:59:39;3.80;99.90
18884;DHT22;9574;47.282;9.640;2024-02-21T06:02:07;3.80;99.90
18884;DHT22;9574;47.282;9.640;2024-02-21T06:04:34;3.90;99.90
18884;DHT22;9574;47.282;9.640;2024-02-21T06:07:03;3.90;99.90
18884;DHT22;9574;47.282;9.640;2024-02-21T06:09:30;4.00;99.90
18884;DHT22;9574;47.282;9.640;2024-02-21T06:11:57;4.00;99.90
18884;DHT22;9574;47.282;9.640;2024-02-21T06:14:24;4.00;99.90
18884;DHT22;9574;47.282;9.640;2024-02-21T06:16:51;4.00;99.90
18884;DHT22;9574;47.282;9.640;2024-02-21T06:19:18;4.30;99.90
18884;DHT22;9574;47.282;9.640;2024-02-21T06:21:45;4.40;99.90
18884;DHT22;9574;47.282;9.640;2024-02-21T06:24:13;4.40;99.90
18884;DHT22;9574;47.282;9.640;2024-02-21T06:26:41;4.50;99.90
18884;DHT22;9574;47.282;9.640;2024-02-21T06:29:08;4.60;99.90
18884;DHT22;9574;47.282;9.640;2024-02-21T06:31:35;4.70;99.90
18884;DHT22;9574;47.282;9.640;2024-02-21T06:34:02;4.80;99.90
18884;DHT22;9574;47.282;9.640;2024-02-21T06:36:30;4.80;99.90
18884;DHT22;9574;47.282;9.640;2024-02-21T06:38:57;4.80;99.90
18884;DHT22;9574;47.282;9.640;2024-02-21T06:41:25;4.90;99.90
18884;DHT22;9574;47.282;9.640;2024-02-21T06:43:52;4.70;99.90
18884;DHT22;9574;47.282;9.640;2024-02-21T06:46:23;4.50;99.90
18884;DHT22;9574;47.282;9.640;2024-02-21T06:48:51;4.40;99.90
18884;DHT22;9574;47.282;9.640;2024-02-21T06:51:18;4.30;99.90
18884;DHT22;9574;47.282;9.640;2024-02-21T06:53:45;4.30;99.90
18884;DHT22;9574;47.282;9.640;2024-02-21T06:56:12;4.30;99.90
18884;DHT22;9574;47.282;9.640;2024-02-21T06:58:40;4.30;99.90
18884;DHT22;9574;47.282;9.640;2024-02-21T07:01:08;4.40;99.90
18884;DHT22;9574;47.282;9.640;2024-02-21T07:03:35;4.40;99.90
18884;DHT22;9574;47.282;9.640;2024-02-21T07:06:02;4.50;99.90
18884;DHT22;9574;47.282;9.640;2024-02-21T07:08:30;4.50;99.90
18884;DHT22;9574;47.282;9.640;2024-02-21T07:10:57;4.60;99.90
18884;DHT22;9574;47.282;9.640;2024-02-21T07:13:24;4.60;99.90
18884;DHT22;9574;47.282;9.640;2024-02-21T07:15:52;4.50;99.90
18884;DHT22;9574;47.282;9.640;2024-02-21T07:18:19;4.50;99.90
18884;DHT22;9574;47.282;9.640;2024-02-21T07:20:46;4.60;99.90
18884;DHT22;9574;47.282;9.640;2024-02-21T07:23:13;4.70;99.90
18884;DHT22;9574;47.282;9.640;2024-02-21T07:25:40;4.70;99.90
18884;DHT22;9574;47.282;9.640;2024-02-21T07:28:07;4.80;99.90
18884;DHT22;9574;47.282;9.640;2024-02-21T07:30:35;5.00;99.90
18884;DHT22;9574;47.282;9.640;2024-02-21T07:33:04;5.10;99.90
18884;DHT22;9574;47.282;9.640;2024-02-21T07:35:32;5.30;99.90
18884;DHT22;9574;47.282;9.640;2024-02-21T07:38:00;5.50;99.90
18884;DHT22;9574;47.282;9.640;2024-02-21T07:40:27;5.60;99.90
18884;DHT22;9574;47.282;9.640;2024-02-21T07:42:54;5.40;99.90
18884;DHT22;9574;47.282;9.640;2024-02-21T07:45:21;5.40;99.90
18884;DHT22;9574;47.282;9.640;2024-02-21T07:47:49;5.30;99.90
18884;DHT22;9574;47.282;9.640;2024-02-21T07:50:18;5.30;99.90
18884;DHT22;9574;47.282;9.640;2024-02-21T07:52:45;5.20;99.90
18884;DHT22;9574;47.282;9.640;2024-02-21T07:55:12;5.20;99.90
18884;DHT22;9574;47.282;9.640;2024-02-21T07:57:39;5.50;99.90
18884;DHT22;9574;47.282;9.640;2024-02-21T08:00:07;5.50;99.90
18884;DHT22;9574;47.282;9.640;2024-02-21T08:02:35;5.60;99.90
18884;DHT22;9574;47.282;9.640;2024-02-21T08:05:03;5.90;99.90
18884;DHT22;9574;47.282;9.640;2024-02-21T08:07:32;6.20;99.90
18884;DHT22;9574;47.282;9.640;2024-02-21T08:09:59;6.50;99.90
18884;DHT22;9574;47.282;9.640;2024-02-21T08:12:26;6.80;99.90
18884;DHT22;9574;47.282;9.640;2024-02-21T08:14:53;6.90;99.90
18884;DHT22;9574;47.282;9.640;2024-02-21T08:17:20;7.00;99.90
18884;DHT22;9574;47.282;9.640;2024-02-21T08:19:47;7.00;99.90
18884;DHT22;9574;47.282;9.640;2024-02-21T08:22:15;7.10;99.90
18884;DHT22;9574;47.282;9.640;2024-02-21T08:24:43;7.50;99.90
18884;DHT22;9574;47.282;9.640;2024-02-21T08:27:10;7.70;99.90
18884;DHT22;9574;47.282;9.640;2024-02-21T08:29:37;7.70;99.90
18884;DHT22;9574;47.282;9.640;2024-02-21T08:32:05;7.80;99.90
18884;DHT22;9574;47.282;9.640;2024-02-21T08:34:32;7.90;99.90
18884;DHT22;9574;47.282;9.640;2024-02-21T08:36:59;8.20;99.90
18884;DHT22;9574;47.282;9.640;2024-02-21T08:39:26;8.40;99.90
18884;DHT22;9574;47.282;9.640;2024-02-21T08:41:57;8.80;99.90
18884;DHT22;9574;47.282;9.640;2024-02-21T08:44:24;9.20;99.90
18884;DHT22;9574;47.282;9.640;2024-02-21T08:46:52;9.30;99.90
18884;DHT22;9574;47.282;9.640;2024-02-21T08:49:19;9.30;99.90
18884;DHT22;9574;47.282;9.640;2024-02-21T08:51:46;9.60;99.90
18884;DHT22;9574;47.282;9.640;2024-02-21T08:54:13;9.80;99.90
18884;DHT22;9574;47.282;9.640;2024-02-21T08:56:40;9.60;99.90
18884;DHT22;9574;47.282;9.640;2024-02-21T08:59:08;9.80;99.90
18884;DHT22;9574;47.282;9.640;2024-02-21T09:01:35;10.00;99.90
18884;DHT22;9574;47.282;9.640;2024-02-21T09:04:03;10.10;99.90
18884;DHT22;9574;47.282;9.640;2024-02-21T09:06:30;10.30;99.90
18884;DHT22;9574;47.282;9.640;2024-02-21T09:08:59;10.40;99.90
18884;DHT22;9574;47.282;9.640;2024-02-21T09:11:26;10.60;99.90
18884;DHT22;9574;47.282;9.640;2024-02-21T09:13:54;10.60;99.90
18884;DHT22;9574;47.282;9.640;2024-02-21T09:16:23;10.70;99.90
18884;DHT22;9574;47.282;9.640;2024-02-21T09:18:50;10.60;99.90
18884;DHT22;9574;47.282;9.640;2024-02-21T09:21:18;10.50;99.90
18884;DHT22;9574;47.282;9.640;2024-02-21T09:23:45;10.50;99.90
18884;DHT22;9574;47.282;9.640;2024-02-21T09:26:12;10.60;99.90
18884;DHT22;9574;47.282;9.640;2024-02-21T09:28:42;10.60;99.90
18884;DHT22;9574;47.282;9.640;2024-02-21T09:31:09;10.60;99.90
18884;DHT22;9574;47.282;9.640;2024-02-21T09:33:38;10.60;99.90
18884;DHT22;9574;47.282;9.640;2024-02-21T09:36:06;10.80;99.90
18884;DHT22;9574;47.282;9.640;2024-02-21T09:38:33;10.90;99.90
18884;DHT22;9574;47.282;9.640;2024-02-21T09:41:15;10.90;99.90
18884;DHT22;9574;47.282;9.640;2024-02-21T09:43:43;10.70;99.90
18884;DHT22;9574;47.282;9.640;2024-02-21T09:46:15;10.70;99.90
18884;DHT22;9574;47.282;9.640;2024-02-21T09:48:55;10.70;99.90
18884;DHT22;9574;47.282;9.640;2024-02-21T09:51:27;10.90;99.90
18884;DHT22;9574;47.282;9.640;2024-02-21T09:53:56;11.10;99.90
18884;DHT22;9574;47.282;9.640;2024-02-21T09:56:24;11.20;99.90
18884;DHT22;9574;47.282;9.640;2024-02-21T09:58:51;11.30;99.90
18884;DHT22;9574;47.282;9.640;2024-02-21T10:01:18;11.30;99.90
18884;DHT22;9574;47.282;9.640;2024-02-21T10:03:47;11.40;99.90
18884;DHT22;9574;47.282;9.640;2024-02-21T10:06:15;11.50;99.90
18884;DHT22;9574;47.282;9.640;2024-02-21T10:08:42;11.50;99.90
18884;DHT22;9574;47.282;9.640;2024-02-21T10:11:10;11.60;99.90
18884;DHT22;9574;47.282;9.640;2024-02-21T10:13:37;11.60;99.90
18884;DHT22;9574;47.282;9.640;2024-02-21T10:16:05;11.70;99.90
18884;DHT22;9574;47.282;9.640;2024-02-21T10:18:33;12.10;99.90
18884;DHT22;9574;47.282;9.640;2024-02-21T10:21:03;12.50;99.90
18884;DHT22;9574;47.282;9.640;2024-02-21T10:23:41;12.70;99.90
18884;DHT22;9574;47.282;9.640;2024-02-21T10:26:09;13.10;99.90
18884;DHT22;9574;47.282;9.640;2024-02-21T10:28:37;13.40;99.90
18884;DHT22;9574;47.282;9.640;2024-02-21T10:31:08;13.60;99.90
18884;DHT22;9574;47.282;9.640;2024-02-21T10:33:36;14.00;99.90
18884;DHT22;9574;47.282;9.640;2024-02-21T10:36:11;14.40;99.90
18884;DHT22;9574;47.282;9.640;2024-02-21T10:38:38;14.80;99.90
18884;DHT22;9574;47.282;9.640;2024-02-21T10:41:06;14.90;99.90
18884;DHT22;9574;47.282;9.640;2024-02-21T10:43:38;14.80;99.90
18884;DHT22;9574;47.282;9.640;2024-02-21T10:46:06;14.70;99.90
18884;DHT22;9574;47.282;9.640;2024-02-21T10:48:42;14.70;99.90
18884;DHT22;9574;47.282;9.640;2024-02-21T10:51:15;14.70;99.90
18884;DHT22;9574;47.282;9.640;2024-02-21T10:53:50;14.70;99.90
18884;DHT22;9574;47.282;9.640;2024-02-21T10:56:26;14.80;99.90
18884;DHT22;9574;47.282;9.640;2024-02-21T10:58:56;14.60;99.90
18884;DHT22;9574;47.282;9.640;2024-02-21T11:01:24;14.50;99.90
18884;DHT22;9574;47.282;9.640;2024-02-21T11:03:54;14.60;99.90
18884;DHT22;9574;47.282;9.640;2024-02-21T11:06:24;14.60;99.90
18884;DHT22;9574;47.282;9.640;2024-02-21T11:09:02;14.80;99.90
18884;DHT22;9574;47.282;9.640;2024-02-21T11:11:30;15.20;99.90
18884;DHT22;9574;47.282;9.640;2024-02-21T11:14:09;15.30;99.90
18884;DHT22;9574;47.282;9.640;2024-02-21T11:16:37;15.50;99.90
18884;DHT22;9574;47.282;9.640;2024-02-21T11:19:06;15.60;99.90
18884;DHT22;9574;47.282;9.640;2024-02-21T11:21:36;15.70;99.90
18884;DHT22;9574;47.282;9.640;2024-02-21T11:24:04;15.80;99.90
18884;DHT22;9574;47.282;9.640;2024-02-21T11:26:32;15.90;99.90
18884;DHT22;9574;47.282;9.640;2024-02-21T11:28:59;15.70;99.90
18884;DHT22;9574;47.282;9.640;2024-02-21T11:31:27;15.70;99.90
18884;DHT22;9574;47.282;9.640;2024-02-21T11:33:54;15.80;99.90
18884;DHT22;9574;47.282;9.640;2024-02-21T11:36:25;15.80;99.90
18884;DHT22;9574;47.282;9.640;2024-02-21T11:38:54;15.90;99.90
18884;DHT22;9574;47.282;9.640;2024-02-21T11:41:21;15.80;99.90
18884;DHT22;9574;47.282;9.640;2024-02-21T11:43:49;15.80;99.90
18884;DHT22;9574;47.282;9.640;2024-02-21T11:46:17;15.90;99.90
18884;DHT22;9574;47.282;9.640;2024-02-21T11:48:44;16.00;99.90
18884;DHT22;9574;47.282;9.640;2024-02-21T11:51:21;16.10;99.90
18884;DHT22;9574;47.282;9.640;2024-02-21T11:53:50;16.10;99.90
18884;DHT22;9574;47.282;9.640;2024-02-21T11:56:19;16.00;99.90
18884;DHT22;9574;47.282;9.640;2024-02-21T11:58:48;16.00;99.90
18884;DHT22;9574;47.282;9.640;2024-02-21T12:01:15;15.80;99.90
18884;DHT22;9574;47.282;9.640;2024-02-21T12:03:42;15.70;99.90
18884;DHT22;9574;47.282;9.640;2024-02-21T12:06:16;15.60;99.90
18884;DHT22;9574;47.282;9.640;2024-02-21T12:08:46;15.50;99.90
18884;DHT22;9574;47.282;9.640;2024-02-21T12:11:19;15.50;99.90
18884;DHT22;9574;47.282;9.640;2024-02-21T12:13:47;15.50;99.90
18884;DHT22;9574;47.282;9.640;2024-02-21T12:16:15;15.40;99.90
18884;DHT22;9574;47.282;9.640;2024-02-21T12:18:43;15.40;99.90
18884;DHT22;9574;47.282;9.640;2024-02-21T12:21:10;15.40;99.90
18884;DHT22;9574;47.282;9.640;2024-02-21T12:23:38;15.50;99.90
18884;DHT22;9574;47.282;9.640;2024-02-21T12:26:07;15.50;99.90
18884;DHT22;9574;47.282;9.640;2024-02-21T12:28:36;15.50;99.90
18884;DHT22;9574;47.282;9.640;2024-02-21T12:31:03;15.60;99.90
18884;DHT22;9574;47.282;9.640;2024-02-21T12:33:30;15.70;99.90
18884;DHT22;9574;47.282;9.640;2024-02-21T12:35:58;15.80;99.90
18884;DHT22;9574;47.282;9.640;2024-02-21T12:38:25;15.90;99.90
18884;DHT22;9574;47.282;9.640;2024-02-21T12:40:52;16.00;99.90
18884;DHT22;9574;47.282;9.640;2024-02-21T12:43:19;15.80;99.90
18884;DHT22;9574;47.282;9.640;2024-02-21T12:45:49;15.60;99.90
18884;DHT22;9574;47.282;9.640;2024-02-21T12:48:16;15.80;99.90
18884;DHT22;9574;47.282;9.640;2024-02-21T12:50:49;16.10;99.90
18884;DHT22;9574;47.282;9.640;2024-02-21T12:53:17;16.30;99.90
18884;DHT22;9574;47.282;9.640;2024-02-21T12:55:45;16.40;99.90
18884;DHT22;9574;47.282;9.640;2024-02-21T12:58:11;16.30;99.90
18884;DHT22;9574;47.282;9.640;2024-02-21T13:00:39;16.40;99.90
18884;DHT22;9574;47.282;9.640;2024-02-21T13:03:08;16.40;99.90
18884;DHT22;9574;47.282;9.640;2024-02-21T13:05:35;16.50;99.90
18884;DHT22;9574;47.282;9.640;2024-02-21T13:08:02;16.60;99.90
18884;DHT22;9574;47.282;9.640;2024-02-21T13:10:29;16.60;99.90
18884;DHT22;9574;47.282;9.640;2024-02-21T13:12:56;16.60;99.90
18884;DHT22;9574;47.282;9.640;2024-02-21T13:15:23;16.60;99.90
18884;DHT22;9574;47.282;9.640;2024-02-21T13:17:50;16.50;99.90
18884;DHT22;9574;47.282;9.640;2024-02-21T13:20:18;16.50;99.90
18884;DHT22;9574;47.282;9.640;2024-02-21T13:22:45;16.60;99.90
18884;DHT22;9574;47.282;9.640;2024-02-21T13:25:12;16.60;99.90
18884;DHT22;9574;47.282;9.640;2024-02-21T13:27:40;16.50;99.90
18884;DHT22;9574;47.282;9.640;2024-02-21T13:30:08;16.10;99.90
18884;DHT22;9574;47.282;9.640;2024-02-21T13:32:35;16.10;99.90
18884;DHT22;9574;47.282;9.640;2024-02-21T13:35:03;16.00;99.90
18884;DHT22;9574;47.282;9.640;2024-02-21T13:37:32;16.00;99.90
18884;DHT22;9574;47.282;9.640;2024-02-21T13:39:58;16.00;99.90
18884;DHT22;9574;47.282;9.640;2024-02-21T13:42:25;16.00;99.90
18884;DHT22;9574;47.282;9.640;2024-02-21T13:44:53;16.00;99.90
18884;DHT22;9574;47.282;9.640;2024-02-21T13:47:20;15.90;99.90
18884;DHT22;9574;47.282;9.640;2024-02-21T13:49:48;15.90;99.90
18884;DHT22;9574;47.282;9.640;2024-02-21T13:52:15;16.00;99.90
18884;DHT22;9574;47.282;9.640;2024-02-21T13:54:44;16.00;99.90
18884;DHT22;9574;47.282;9.640;2024-02-21T13:57:11;15.90;99.90
18884;DHT22;9574;47.282;9.640;2024-02-21T13:59:38;15.90;99.90
18884;DHT22;9574;47.282;9.640;2024-02-21T14:02:05;15.90;99.90
18884;DHT22;9574;47.282;9.640;2024-02-21T14:04:33;15.80;99.90
18884;DHT22;9574;47.282;9.640;2024-02-21T14:07:00;15.70;99.90
18884;DHT22;9574;47.282;9.640;2024-02-21T14:09:27;15.60;99.90
18884;DHT22;9574;47.282;9.640;2024-02-21T14:11:56;15.50;99.90
18884;DHT22;9574;47.282;9.640;2024-02-21T14:14:24;15.40;99.90
18884;DHT22;9574;47.282;9.640;2024-02-21T14:16:51;15.20;99.90
18884;DHT22;9574;47.282;9.640;2024-02-21T14:19:17;15.10;99.90
18884;DHT22;9574;47.282;9.640;2024-02-21T14:21:44;15.00;99.90
18884;DHT22;9574;47.282;9.640;2024-02-21T14:24:11;14.90;99.90
18884;DHT22;9574;47.282;9.640;2024-02-21T14:26:38;14.90;99.90
18884;DHT22;9574;47.282;9.640;2024-02-21T14:29:08;14.80;99.90
18884;DHT22;9574;47.282;9.640;2024-02-21T14:31:35;14.80;99.90
18884;DHT22;9574;47.282;9.640;2024-02-21T14:34:01;14.80;99.90
18884;DHT22;9574;47.282;9.640;2024-02-21T14:36:28;14.80;99.90
18884;DHT22;9574;47.282;9.640;2024-02-21T14:38:55;14.80;99.90
18884;DHT22;9574;47.282;9.640;2024-02-21T14:41:22;14.80;99.90
18884;DHT22;9574;47.282;9.640;2024-02-21T14:43:53;14.70;99.90
18884;DHT22;9574;47.282;9.640;2024-02-21T14:46:23;14.70;99.90
18884;DHT22;9574;47.282;9.640;2024-02-21T14:48:49;14.70;99.90
18884;DHT22;9574;47.282;9.640;2024-02-21T14:51:17;14.60;99.90
18884;DHT22;9574;47.282;9.640;2024-02-21T14:53:44;14.50;99.90
18884;DHT22;9574;47.282;9.640;2024-02-21T14:56:13;14.40;99.90
18884;DHT22;9574;47.282;9.640;2024-02-21T14:58:41;14.40;99.90
18884;DHT22;9574;47.282;9.640;2024-02-21T15:01:08;14.40;99.90
18884;DHT22;9574;47.282;9.640;2024-02-21T15:03:36;14.30;99.90
18884;DHT22;9574;47.282;9.640;2024-02-21T15:06:04;14.10;99.90
18884;DHT22;9574;47.282;9.640;2024-02-21T15:08:31;14.10;99.90
18884;DHT22;9574;47.282;9.640;2024-02-21T15:10:58;14.00;99.90
18884;DHT22;9574;47.282;9.640;2024-02-21T15:13:25;13.90;99.90
18884;DHT22;9574;47.282;9.640;2024-02-21T15:15:52;13.70;99.90
18884;DHT22;9574;47.282;9.640;2024-02-21T15:18:20;13.60;99.90
18884;DHT22;9574;47.282;9.640;2024-02-21T15:20:48;13.50;99.90
18884;DHT22;9574;47.282;9.640;2024-02-21T15:23:15;13.50;99.90
18884;DHT22;9574;47.282;9.640;2024-02-21T15:25:43;13.50;99.90
18884;DHT22;9574;47.282;9.640;2024-02-21T15:28:10;13.50;99.90
18884;DHT22;9574;47.282;9.640;2024-02-21T15:30:38;13.50;99.90
18884;DHT22;9574;47.282;9.640;2024-02-21T15:33:05;13.50;99.90
18884;DHT22;9574;47.282;9.640;2024-02-21T15:35:32;13.30;99.90
18884;DHT22;9574;47.282;9.640;2024-02-21T15:38:01;13.30;99.90
18884;DHT22;9574;47.282;9.640;2024-02-21T15:40:28;13.30;99.90
18884;DHT22;9574;47.282;9.640;2024-02-21T15:42:56;13.30;99.90
18884;DHT22;9574;47.282;9.640;2024-02-21T15:45:22;13.40;99.90
18884;DHT22;9574;47.282;9.640;2024-02-21T15:47:49;13.40;99.90
18884;DHT22;9574;47.282;9.640;2024-02-21T15:50:16;13.40;99.90
18884;DHT22;9574;47.282;9.640;2024-02-21T15:52:45;13.40;99.90
18884;DHT22;9574;47.282;9.640;2024-02-21T15:55:13;13.40;99.90
18884;DHT22;9574;47.282;9.640;2024-02-21T15:57:42;13.30;99.90